Time;durP1;ratioP1;P1;durP2;ratioP2;P2;SDS_P1;SDS_P2;PMS_P1;PMS_P2;Temp;Humidity;BMP_temperature;BMP_pressure;BME280_temperature;BME280_humidity;BME280_pressure;Samples;Min_cycle;Max_cycle;Signal;HPM_P1;HPM_P2
2023/03/05 00:01:18;;;;;;;1.10;0.45;;;;;;;4.22;79.09;102450.00;4976226;28;100796;-29
2023/03/05 00:03:44;;;;;;;1.00;0.30;;;;;;;4.19;78.92;102457.16;4977322;28;96559;-30
2023/03/05 00:06:10;;;;;;;1.75;0.82;;;;;;;4.14;78.96;102441.13;4977727;28;96804;-30
2023/03/05 00:08:36;;;;;;;0.80;0.32;;;;;;;4.09;78.96;102444.75;4976856;28;97951;-30
2023/03/05 00:11:09;;;;;;;0.43;0.40;;;;;;;4.02;78.90;102431.38;4977326;28;97911;-31
2023/03/05 00:13:35;;;;;;;0.95;0.40;;;;;;;3.97;79.19;102427.88;4976217;28;96770;-29
2023/03/05 00:16:10;;;;;;;1.55;0.63;;;;;;;3.92;78.97;102416.28;4976295;28;96897;-30
2023/03/05 00:18:36;;;;;;;0.30;0.20;;;;;;;3.90;79.42;102417.22;4975727;28;100905;-30
2023/03/05 00:21:03;;;;;;;0.77;0.50;;;;;;;3.88;78.88;102421.69;4976217;28;100779;-30
2023/03/05 00:23:29;;;;;;;0.43;0.40;;;;;;;3.88;79.21;102416.34;4976112;28;96706;-30
2023/03/05 00:25:54;;;;;;;0.55;0.47;;;;;;;3.77;78.94;102406.59;4977315;28;96767;-31
2023/03/05 00:28:19;;;;;;;0.52;0.40;;;;;;;3.75;79.59;102418.25;4976637;28;97512;-31
2023/03/05 00:30:45;;;;;;;0.82;0.70;;;;;;;3.73;79.43;102415.56;4977350;28;97221;-31
2023/03/05 00:33:11;;;;;;;6.32;1.17;;;;;;;3.68;79.90;102417.38;4977593;28;96567;-30
2023/03/05 00:35:45;;;;;;;0.98;0.80;;;;;;;3.66;79.71;102415.63;4959652;28;96891;-30
2023/03/05 00:38:11;;;;;;;0.52;0.50;;;;;;;3.64;79.24;102404.03;4975746;28;101373;-30
2023/03/05 00:40:38;;;;;;;1.55;0.52;;;;;;;3.59;79.57;102412.09;4976926;28;97888;-30
2023/03/05 00:43:04;;;;;;;1.10;0.40;;;;;;;3.53;79.51;102405.00;4975940;28;96571;-30
2023/03/05 00:45:30;;;;;;;2.67;1.25;;;;;;;3.50;79.39;102413.03;4976217;28;96888;-30
2023/03/05 00:47:55;;;;;;;0.55;0.50;;;;;;;3.44;79.89;102396.16;4976835;28;97864;-29
2023/03/05 00:50:21;;;;;;;1.63;1.13;;;;;;;3.39;79.93;102404.22;4975237;28;100807;-32
2023/03/05 00:52:46;;;;;;;1.17;0.90;;;;;;;3.43;79.61;102400.59;4976618;28;96477;-30
2023/03/05 00:55:11;;;;;;;1.70;0.70;;;;;;;3.43;79.88;102400.59;4976535;28;96844;-30
2023/03/05 00:57:37;;;;;;;2.10;1.40;;;;;;;3.38;79.93;102395.28;4976352;28;100345;-30
2023/03/05 01:00:04;;;;;;;0.63;0.57;;;;;;;3.36;80.40;102386.38;4976570;28;98742;-30
2023/03/05 01:02:30;;;;;;;0.57;0.52;;;;;;;3.34;79.99;102382.81;4975592;28;96732;-31
2023/03/05 01:04:55;;;;;;;0.98;0.88;;;;;;;3.43;80.22;102391.66;4976695;28;96617;-30
2023/03/05 01:07:20;;;;;;;2.45;1.02;;;;;;;3.40;80.33;102385.44;4976785;28;97234;-30
2023/03/05 01:09:46;;;;;;;1.85;0.75;;;;;;;3.39;80.20;102378.31;4976004;28;99123;-29
2023/03/05 01:12:11;;;;;;;1.70;1.27;;;;;;;3.44;80.82;102382.75;4976654;28;96632;-30
2023/03/05 01:14:36;;;;;;;0.95;0.80;;;;;;;3.44;80.59;102382.75;4976702;28;96848;-30
2023/03/05 01:17:02;;;;;;;2.60;0.98;;;;;;;3.44;80.13;102378.28;4975887;28;98586;-30
2023/03/05 01:19:28;;;;;;;2.92;1.00;;;;;;;3.48;80.75;102380.03;4974469;28;100867;-30
2023/03/05 01:21:54;;;;;;;3.03;0.65;;;;;;;3.46;80.71;102365.78;4975156;28;96566;-29
2023/03/05 01:24:20;;;;;;;3.45;1.13;;;;;;;3.50;80.53;102366.63;4976225;28;96758;-30
2023/03/05 01:26:45;;;;;;;0.45;0.43;;;;;;;3.52;80.76;102360.34;4974868;28;101123;-30
2023/03/05 01:29:11;;;;;;;0.32;0.30;;;;;;;3.56;80.90;102370.16;4974813;28;100978;-30
2023/03/05 01:31:36;;;;;;;1.75;0.88;;;;;;;3.57;80.78;102354.94;4976518;28;96615;-30
2023/03/05 01:34:02;;;;;;;0.65;0.30;;;;;;;3.56;80.80;102358.53;4975429;28;96806;-30
2023/03/05 01:36:27;;;;;;;1.80;0.57;;;;;;;3.56;80.59;102347.81;4975913;28;99200;-30
2023/03/05 01:38:52;;;;;;;0.15;0.13;;;;;;;3.56;80.88;102350.50;4975719;28;98614;-30
2023/03/05 01:41:18;;;;;;;3.35;1.55;;;;;;;3.58;80.85;102338.88;4975649;28;96742;-29
2023/03/05 01:43:45;;;;;;;0.50;0.40;;;;;;;3.61;80.99;102341.53;4976221;28;96743;-30
2023/03/05 01:46:16;;;;;;;0.85;0.57;;;;;;;3.63;81.08;102335.28;4974521;28;101275;-31
2023/03/05 01:48:45;;;;;;;0.20;0.20;;;;;;;3.61;81.37;102330.81;4975798;28;99274;-30
2023/03/05 01:51:10;;;;;;;0.17;0.17;;;;;;;3.64;81.32;102326.31;4974535;28;96597;-30
2023/03/05 01:53:36;;;;;;;0.30;0.30;;;;;;;3.66;80.61;102332.56;4975730;28;96686;-30
2023/03/05 01:56:02;;;;;;;0.40;0.25;;;;;;;3.64;80.50;102319.16;4975605;28;99493;-31
2023/03/05 01:58:28;;;;;;;1.90;0.52;;;;;;;3.67;81.16;102316.47;4976025;28;98831;-30
2023/03/05 02:00:54;;;;;;;0.20;0.10;;;;;;;3.68;81.02;102312.88;4976160;28;96703;-30
2023/03/05 02:03:22;;;;;;;1.90;0.75;;;;;;;3.66;80.64;102306.66;4974577;28;96774;-30
2023/03/05 02:05:47;;;;;;;0.45;0.32;;;;;;;3.72;81.19;102309.28;4973622;28;101080;-30
2023/03/05 02:08:19;;;;;;;1.30;0.60;;;;;;;3.73;81.04;102296.75;4974267;28;97998;-29
2023/03/05 02:10:50;;;;;;;0.57;0.28;;;;;;;3.73;81.08;102297.66;4974469;28;96655;-30
2023/03/05 02:13:22;;;;;;;2.17;0.75;;;;;;;3.72;81.41;102287.84;4974435;28;97395;-29
2023/03/05 02:15:48;;;;;;;0.00;0.00;;;;;;;3.74;81.32;102293.16;4975595;28;97970;-30
2023/03/05 02:18:15;;;;;;;0.08;0.08;;;;;;;3.72;81.07;102279.81;4973675;28;101182;-29
2023/03/05 02:20:46;;;;;;;0.43;0.13;;;;;;;3.75;81.08;102273.53;4974181;28;96688;-29
2023/03/05 02:23:13;;;;;;;0.00;0.00;;;;;;;3.75;81.02;102279.78;4976220;28;96770;-31
2023/03/05 02:25:38;;;;;;;0.38;0.17;;;;;;;3.72;81.11;102271.78;4975214;28;97424;-30
2023/03/05 02:28:27;;;;;;;0.47;0.30;;;;;;;3.72;81.32;102261.06;4975543;28;97802;-30
2023/03/05 02:30:52;;;;;;;1.63;0.28;;;;;;;3.73;81.16;102265.50;4975182;28;96557;-30
2023/03/05 02:33:19;;;;;;;0.75;0.15;;;;;;;3.72;80.77;102266.41;4975539;28;96725;-29
2023/03/05 02:35:45;;;;;;;0.45;0.25;;;;;;;3.73;81.04;102257.44;4975536;28;97344;-30
2023/03/05 02:38:12;;;;;;;0.08;0.08;;;;;;;3.70;80.73;102246.78;4975169;28;99794;-31
2023/03/05 02:40:38;;;;;;;0.32;0.30;;;;;;;3.68;80.68;102242.34;4975439;28;96650;-30
2023/03/05 02:43:04;;;;;;;0.35;0.28;;;;;;;3.68;80.68;102240.53;4974017;28;96931;-29
2023/03/05 02:45:29;;;;;;;0.63;0.30;;;;;;;3.65;80.62;102240.59;4973613;28;101128;-30
2023/03/05 02:47:55;;;;;;;4.10;0.70;;;;;;;3.60;81.10;102223.66;4975321;28;97292;-31
2023/03/05 02:50:21;;;;;;;0.03;0.03;;;;;;;3.60;81.04;102229.91;4975593;28;96451;-30
2023/03/05 02:52:46;;;;;;;1.00;0.52;;;;;;;3.56;80.88;102236.19;4975141;28;96718;-30
2023/03/05 02:55:12;;;;;;;0.75;0.30;;;;;;;3.54;81.37;102237.13;4973042;28;100755;-30
2023/03/05 02:57:37;;;;;;;0.93;0.65;;;;;;;3.47;81.51;102227.38;4975346;28;97343;-30
2023/03/05 03:00:04;;;;;;;0.45;0.30;;;;;;;3.48;81.29;102227.34;4975324;28;96588;-31
2023/03/05 03:02:30;;;;;;;0.47;0.25;;;;;;;3.50;81.31;102227.31;4973617;28;96848;-30
2023/03/05 03:04:55;;;;;;;1.25;0.43;;;;;;;3.48;81.46;102223.78;4974798;28;97402;-30
2023/03/05 03:07:20;;;;;;;1.30;0.50;;;;;;;3.49;81.40;102226.44;4974890;28;97308;-30
2023/03/05 03:09:46;;;;;;;0.35;0.25;;;;;;;3.52;81.63;102225.53;4974546;28;96767;-30
2023/03/05 03:12:11;;;;;;;1.30;0.60;;;;;;;3.56;81.52;102222.81;4975169;28;96811;-30
2023/03/05 03:14:40;;;;;;;1.13;0.68;;;;;;;3.59;81.27;102222.75;4974921;28;97823;-31
2023/03/05 03:17:11;;;;;;;0.55;0.10;;;;;;;3.64;80.95;102216.47;4973032;28;101188;-30
2023/03/05 03:19:37;;;;;;;0.00;0.00;;;;;;;3.67;81.42;102214.66;4973895;28;96762;-29
2023/03/05 03:22:03;;;;;;;0.50;0.22;;;;;;;3.71;81.67;102210.13;4973564;28;96766;-29
2023/03/05 03:24:30;;;;;;;0.90;0.30;;;;;;;3.70;81.43;102198.53;4972896;28;101359;-31
2023/03/05 03:26:56;;;;;;;0.80;0.32;;;;;;;3.74;81.81;102200.28;4974521;28;99315;-32
2023/03/05 03:29:21;;;;;;;0.30;0.28;;;;;;;3.76;81.55;102197.56;4974835;28;96623;-29
2023/03/05 03:31:47;;;;;;;0.20;0.15;;;;;;;3.78;82.23;102191.28;4974955;28;96809;-30
2023/03/05 03:34:14;;;;;;;0.47;0.30;;;;;;;3.75;81.52;102190.47;4974642;28;97854;-30
2023/03/05 03:36:41;;;;;;;1.48;0.35;;;;;;;3.77;82.04;102183.28;4973498;28;101267;-30
2023/03/05 03:39:08;;;;;;;1.25;0.60;;;;;;;3.77;81.64;102186.84;4973319;28;96632;-30
2023/03/05 03:41:35;;;;;;;0.10;0.10;;;;;;;3.77;82.24;102194.00;4974713;28;96689;-29
2023/03/05 03:44:02;;;;;;;0.25;0.20;;;;;;;3.74;81.81;102185.97;4972226;28;101449;-31
2023/03/05 03:46:27;;;;;;;0.30;0.30;;;;;;;3.73;82.39;102181.53;4972935;28;101447;-30
2023/03/05 03:48:52;;;;;;;0.22;0.20;;;;;;;3.75;82.22;102174.38;4974756;28;96551;-30
2023/03/05 03:51:18;;;;;;;0.10;0.05;;;;;;;3.74;82.03;102181.53;4974729;28;97056;-29
2023/03/05 03:53:43;;;;;;;0.55;0.20;;;;;;;3.72;81.85;102169.03;4973998;28;99330;-30
2023/03/05 03:56:09;;;;;;;0.10;0.10;;;;;;;3.71;82.07;102162.78;4974415;28;97261;-29
2023/03/05 03:58:34;;;;;;;0.73;0.08;;;;;;;3.72;81.79;102164.59;4974691;28;96645;-31
2023/03/05 04:01:00;;;;;;;0.08;0.08;;;;;;;3.71;82.26;102162.78;4974711;28;96763;-29
2023/03/05 04:03:25;;;;;;;0.28;0.10;;;;;;;3.76;81.64;102170.78;4974157;28;97580;-31
2023/03/05 04:05:50;;;;;;;0.55;0.35;;;;;;;3.73;82.44;102160.97;4974329;28;97785;-29
2023/03/05 04:08:16;;;;;;;0.00;0.00;;;;;;;3.77;82.12;102170.78;4973392;28;96731;-29
2023/03/05 04:10:41;;;;;;;0.00;0.00;;;;;;;3.74;83.80;102170.81;4974638;28;96586;-30
2023/03/05 04:13:07;;;;;;;0.00;0.00;;;;;;;3.73;82.46;102158.31;4974050;28;98084;-30
2023/03/05 04:15:33;;;;;;;0.00;0.00;;;;;;;3.73;82.72;102147.59;4974323;28;97334;-29
2023/03/05 04:17:58;;;;;;;0.00;0.00;;;;;;;3.78;82.38;102148.41;4972722;28;96945;-29
2023/03/05 04:20:25;;;;;;;0.00;0.00;;;;;;;3.79;82.81;102144.84;4974245;28;96808;-30
2023/03/05 04:22:50;;;;;;;0.10;0.10;;;;;;;3.81;82.60;102145.72;4972502;28;100854;-30
2023/03/05 04:25:16;;;;;;;0.00;0.00;;;;;;;3.79;82.66;102134.13;4974193;28;97904;-30
2023/03/05 04:27:41;;;;;;;0.00;0.00;;;;;;;3.82;82.20;102130.53;4974422;28;96723;-32
2023/03/05 04:30:08;;;;;;;0.00;0.00;;;;;;;3.86;82.56;102134.91;4974269;28;96802;-30
2023/03/05 04:32:33;;;;;;;0.20;0.10;;;;;;;3.87;82.14;102130.47;4976471;28;99845;-30
2023/03/05 04:34:59;;;;;;;0.00;0.00;;;;;;;3.86;82.56;102128.66;4977257;28;97776;-31
2023/03/05 04:37:25;;;;;;;0.00;0.00;;;;;;;3.88;82.39;102127.75;4977456;28;96537;-30
2023/03/05 04:39:51;;;;;;;0.00;0.00;;;;;;;3.90;82.21;102128.59;4975916;28;96837;-30
2023/03/05 04:42:18;;;;;;;0.00;0.00;;;;;;;3.88;82.78;102122.38;4975445;28;100801;-31
2023/03/05 04:44:45;;;;;;;0.65;0.25;;;;;;;3.88;82.19;102121.50;4975401;28;100942;-30
2023/03/05 04:47:10;;;;;;;0.00;0.00;;;;;;;3.88;82.23;102125.06;4975853;28;96733;-29
2023/03/05 04:49:35;;;;;;;0.00;0.00;;;;;;;3.85;82.63;102119.75;4977725;28;96730;-30
2023/03/05 04:52:01;;;;;;;0.10;0.05;;;;;;;3.86;82.15;102117.94;4976834;28;98381;-31
2023/03/05 04:54:27;;;;;;;0.00;0.00;;;;;;;3.85;82.34;102125.09;4976891;28;97856;-30
2023/03/05 04:56:52;;;;;;;0.35;0.13;;;;;;;3.81;81.98;102116.25;4975013;28;96820;-30
2023/03/05 04:59:17;;;;;;;0.00;0.00;;;;;;;3.83;82.41;102122.44;4977140;28;96731;-30
2023/03/05 05:01:43;;;;;;;0.00;0.00;;;;;;;3.78;81.92;102107.34;4976836;28;97513;-30
2023/03/05 05:04:08;;;;;;;0.08;0.00;;;;;;;3.77;82.21;102105.56;4976408;28;99362;-31
2023/03/05 05:06:33;;;;;;;0.03;0.03;;;;;;;3.75;81.91;102094.00;4977215;28;97023;-30
2023/03/05 05:08:59;;;;;;;0.10;0.10;;;;;;;3.73;81.80;102098.47;4976209;28;96758;-32
2023/03/05 05:11:24;;;;;;;0.22;0.10;;;;;;;3.70;82.41;102094.03;4976351;28;98287;-30
2023/03/05 05:13:49;;;;;;;0.00;0.00;;;;;;;3.67;82.10;102091.41;4976681;28;97619;-30
2023/03/05 05:16:15;;;;;;;0.00;0.00;;;;;;;3.64;82.02;102086.06;4976695;28;96575;-29
2023/03/05 05:18:40;;;;;;;0.00;0.00;;;;;;;3.66;82.48;102092.31;4976285;28;97007;-30
2023/03/05 05:21:08;;;;;;;0.17;0.10;;;;;;;3.63;82.16;102089.66;4975682;28;99280;-31
2023/03/05 05:23:34;;;;;;;0.00;0.00;;;;;;;3.61;82.47;102081.63;4974961;28;101400;-30
2023/03/05 05:26:02;;;;;;;0.00;0.00;;;;;;;3.61;82.27;102078.09;4975120;28;96801;-30
2023/03/05 05:28:28;;;;;;;0.10;0.10;;;;;;;3.59;82.38;102079.91;4975100;28;97029;-30
2023/03/05 05:30:54;;;;;;;0.20;0.10;;;;;;;3.57;82.33;102068.31;4974720;28;101251;-30
2023/03/05 05:33:20;;;;;;;0.10;0.08;;;;;;;3.59;82.41;102071.84;4976219;28;97516;-30
2023/03/05 05:35:45;;;;;;;0.00;0.00;;;;;;;3.57;82.40;102073.66;4975092;28;96585;-30
2023/03/05 05:38:11;;;;;;;0.00;0.00;;;;;;;3.57;82.77;102071.88;4976875;28;96849;-29
2023/03/05 05:40:36;;;;;;;0.00;0.00;;;;;;;3.59;82.82;102069.19;4975959;28;97321;-29
2023/03/05 05:43:01;;;;;;;0.10;0.08;;;;;;;3.55;82.58;102072.78;4974884;28;97340;-30
2023/03/05 05:45:27;;;;;;;0.00;0.00;;;;;;;3.55;82.38;102056.72;4975503;28;96539;-30
2023/03/05 05:47:52;;;;;;;0.00;0.00;;;;;;;3.52;82.66;102063.00;4976400;28;96832;-30
2023/03/05 05:50:21;;;;;;;0.00;0.00;;;;;;;3.49;82.50;102060.38;4975768;28;99863;-30
2023/03/05 05:52:47;;;;;;;0.10;0.10;;;;;;;3.47;83.11;102055.94;4974408;28;101047;-30
2023/03/05 05:55:12;;;;;;;0.00;0.00;;;;;;;3.45;82.51;102055.94;4975959;28;96480;-30
2023/03/05 05:57:37;;;;;;;0.00;0.00;;;;;;;3.46;82.76;102060.41;4975973;28;96804;-30
2023/03/05 06:00:08;;;;;;;0.00;0.00;;;;;;;3.46;82.62;102067.56;4975679;28;99337;-30
2023/03/05 06:02:37;;;;;;;0.03;0.00;;;;;;;3.40;82.93;102052.44;4974687;28;103962;-31
2023/03/05 06:05:02;;;;;;;0.10;0.10;;;;;;;3.39;82.99;102054.25;4974733;28;96713;-30
2023/03/05 06:07:28;;;;;;;0.65;0.22;;;;;;;3.41;82.84;102054.25;4975820;28;96823;-29
2023/03/05 06:09:53;;;;;;;0.00;0.00;;;;;;;3.39;83.19;102064.97;4974936;28;97348;-29
2023/03/05 06:12:18;;;;;;;0.10;0.10;;;;;;;3.37;83.08;102050.69;4975381;28;99351;-30
2023/03/05 06:14:44;;;;;;;0.40;0.20;;;;;;;3.38;83.10;102052.50;4975724;28;96660;-32
2023/03/05 06:17:09;;;;;;;0.08;0.08;;;;;;;3.39;82.83;102056.03;4975873;28;96785;-29
2023/03/05 06:19:34;;;;;;;0.20;0.20;;;;;;;3.39;82.99;102054.25;4975234;28;98956;-30
2023/03/05 06:22:00;;;;;;;0.05;0.05;;;;;;;3.40;83.16;102053.31;4975495;28;98252;-30
2023/03/05 06:24:25;;;;;;;0.22;0.15;;;;;;;3.40;83.36;102049.78;4975472;28;96819;-29
2023/03/05 06:26:50;;;;;;;0.00;0.00;;;;;;;3.43;83.23;102055.06;4976288;28;96752;-32
2023/03/05 06:29:16;;;;;;;0.30;0.15;;;;;;;3.46;82.97;102052.38;4975234;28;99267;-30
2023/03/05 06:31:42;;;;;;;0.00;0.00;;;;;;;3.49;83.11;102057.69;4975297;28;97284;-30
2023/03/05 06:34:07;;;;;;;0.55;0.10;;;;;;;3.51;83.17;102052.31;4975103;28;96638;-30
2023/03/05 06:36:32;;;;;;;0.30;0.20;;;;;;;3.54;83.16;102058.53;4975653;28;96823;-29
2023/03/05 06:38:58;;;;;;;0.40;0.15;;;;;;;3.52;82.92;102054.97;4975162;28;97447;-30
2023/03/05 06:41:26;;;;;;;0.52;0.20;;;;;;;3.53;83.48;102059.44;4973658;28;101330;-31
2023/03/05 06:43:52;;;;;;;3.20;0.22;;;;;;;3.54;84.30;102068.34;4974066;28;96566;-30
2023/03/05 06:46:30;;;;;;;0.00;0.00;;;;;;;3.51;85.16;102076.44;4975558;28;96778;-30
2023/03/05 06:48:57;;;;;;;0.03;0.03;;;;;;;3.50;84.79;102058.56;4974903;28;99534;-30
2023/03/05 06:51:29;;;;;;;0.00;0.00;;;;;;;3.48;84.96;102058.63;4973952;28;100428;-30
2023/03/05 06:53:58;;;;;;;0.10;0.10;;;;;;;3.51;84.22;102049.66;4973614;28;96540;-29
2023/03/05 06:56:23;;;;;;;2.85;0.32;;;;;;;3.50;84.66;102043.38;4973872;28;96893;-30
2023/03/05 06:58:50;;;;;;;0.00;0.00;;;;;;;3.53;83.90;102045.16;4974596;28;97336;-30
2023/03/05 07:01:17;;;;;;;0.00;0.00;;;;;;;3.59;83.31;102050.41;4973496;28;98852;-30
2023/03/05 07:03:43;;;;;;;0.70;0.30;;;;;;;3.64;83.81;102048.56;4975024;28;96729;-30
2023/03/05 07:06:11;;;;;;;0.00;0.00;;;;;;;3.65;83.37;102045.00;4973397;28;96920;-30
2023/03/05 07:08:37;;;;;;;0.03;0.03;;;;;;;3.69;83.24;102051.19;4972719;28;101018;-29
2023/03/05 07:11:03;;;;;;;0.38;0.20;;;;;;;3.72;83.15;102045.78;4973279;28;101174;-30
2023/03/05 07:13:29;;;;;;;0.05;0.03;;;;;;;3.73;82.92;102036.84;4974862;28;96616;-30
2023/03/05 07:15:54;;;;;;;4.90;0.70;;;;;;;3.74;83.38;102042.19;4974000;28;96856;-30
2023/03/05 07:18:20;;;;;;;1.60;0.40;;;;;;;3.78;83.54;102041.22;4973132;28;101115;-30
2023/03/05 07:20:45;;;;;;;4.57;0.57;;;;;;;3.78;83.27;102043.91;4972993;28;101173;-30
2023/03/05 07:23:11;;;;;;;0.10;0.10;;;;;;;3.82;83.18;102039.41;4974539;28;96560;-30
2023/03/05 07:25:37;;;;;;;0.93;0.13;;;;;;;3.87;82.75;102044.69;4974892;28;96839;-31
2023/03/05 07:28:06;;;;;;;0.00;0.00;;;;;;;3.89;82.65;102037.53;4973209;28;101714;-30
2023/03/05 07:30:32;;;;;;;0.08;0.05;;;;;;;3.94;82.76;102027.63;4973131;28;101107;-30
2023/03/05 07:32:58;;;;;;;0.05;0.05;;;;;;;3.98;82.79;102026.63;4973370;28;96566;-30
2023/03/05 07:35:23;;;;;;;0.43;0.13;;;;;;;4.01;82.82;102032.84;4975037;28;97393;-30
2023/03/05 07:37:49;;;;;;;0.15;0.08;;;;;;;4.04;82.99;102029.25;4974287;28;99426;-30
2023/03/05 07:40:15;;;;;;;0.03;0.00;;;;;;;4.09;82.92;102024.69;4973274;28;100907;-30
2023/03/05 07:42:41;;;;;;;0.00;0.00;;;;;;;4.15;82.76;102029.97;4974620;28;96546;-30
2023/03/05 07:45:06;;;;;;;0.00;0.00;;;;;;;4.19;82.63;102030.78;4974606;28;96828;-30
2023/03/05 07:47:32;;;;;;;0.25;0.10;;;;;;;4.19;82.05;102020.94;4973856;28;99592;-31
2023/03/05 07:49:57;;;;;;;0.08;0.03;;;;;;;4.23;82.22;102019.09;4974338;28;97505;-32
2023/03/05 07:52:23;;;;;;;0.10;0.05;;;;;;;4.25;82.03;102015.47;4974480;28;96538;-30
2023/03/05 07:54:48;;;;;;;0.73;0.20;;;;;;;4.31;81.85;102027.91;4974876;28;96799;-29
2023/03/05 07:57:13;;;;;;;0.77;0.17;;;;;;;4.37;81.50;102029.63;4974370;28;97434;-30
2023/03/05 07:59:39;;;;;;;0.00;0.00;;;;;;;4.30;82.19;102023.47;4974319;28;97348;-30
2023/03/05 08:02:05;;;;;;;0.32;0.32;;;;;;;4.27;82.00;102031.56;4974505;28;96482;-29
2023/03/05 08:04:30;;;;;;;3.30;0.28;;;;;;;4.22;81.92;102036.13;4974920;28;96834;-30
2023/03/05 08:06:57;;;;;;;0.17;0.13;;;;;;;4.16;82.83;102023.69;4976586;28;99267;-30
2023/03/05 08:09:22;;;;;;;0.00;0.00;;;;;;;4.18;82.76;102029.91;4975747;28;99806;-30
2023/03/05 08:11:48;;;;;;;0.60;0.25;;;;;;;4.20;83.62;102027.22;4977115;28;96764;-29
2023/03/05 08:14:13;;;;;;;0.10;0.00;;;;;;;4.23;83.24;102032.50;4977748;28;96805;-30
2023/03/05 08:16:39;;;;;;;2.08;0.17;;;;;;;4.24;82.42;102019.09;4977790;28;97474;-31
2023/03/05 08:19:04;;;;;;;1.75;0.20;;;;;;;4.34;82.32;102021.59;4976692;28;99893;-29
2023/03/05 08:21:33;;;;;;;0.00;0.00;;;;;;;4.36;82.57;102009.03;4977896;28;96608;-29
2023/03/05 08:23:59;;;;;;;0.05;0.05;;;;;;;4.41;82.33;102005.41;4976276;28;96802;-29
2023/03/05 08:26:27;;;;;;;0.10;0.10;;;;;;;4.45;82.03;102006.22;4975378;28;101797;-30
2023/03/05 08:28:53;;;;;;;0.08;0.03;;;;;;;4.52;81.86;102013.25;4976153;28;100820;-30
2023/03/05 08:31:22;;;;;;;0.08;0.00;;;;;;;4.56;82.08;101998.88;4975984;28;96546;-32
2023/03/05 08:33:50;;;;;;;0.65;0.20;;;;;;;4.61;81.99;102004.16;4977651;28;96815;-30
2023/03/05 08:36:15;;;;;;;0.30;0.05;;;;;;;4.62;82.31;102009.50;4975143;28;101301;-29
2023/03/05 08:38:41;;;;;;;0.20;0.10;;;;;;;4.64;82.00;102001.41;4976861;28;99556;-31
2023/03/05 08:41:07;;;;;;;0.10;0.03;;;;;;;4.68;81.35;102004.00;4977318;28;96582;-30
2023/03/05 08:43:32;;;;;;;0.03;0.00;;;;;;;4.68;81.51;101997.75;4975853;28;96888;-29
2023/03/05 08:45:59;;;;;;;0.75;0.05;;;;;;;4.73;81.14;101992.31;4976798;28;99723;-30
2023/03/05 08:48:25;;;;;;;0.00;0.00;;;;;;;4.73;81.37;101993.19;4975353;28;100943;-30
2023/03/05 08:50:50;;;;;;;0.00;0.00;;;;;;;4.77;81.23;101992.22;4977340;28;96486;-30
2023/03/05 08:53:16;;;;;;;0.03;0.03;;;;;;;4.81;81.36;101985.84;4977509;28;96746;-29
2023/03/05 08:55:41;;;;;;;0.00;0.00;;;;;;;4.87;80.87;101979.50;4976808;28;98196;-30
2023/03/05 08:58:06;;;;;;;0.00;0.00;;;;;;;4.95;81.05;101977.53;4975382;28;99377;-31
2023/03/05 09:00:32;;;;;;;0.08;0.03;;;;;;;5.00;80.79;101978.31;4976655;28;96476;-29
2023/03/05 09:02:57;;;;;;;0.40;0.22;;;;;;;5.08;80.46;101981.75;4976772;28;96722;-30
2023/03/05 09:05:22;;;;;;;0.45;0.40;;;;;;;5.20;80.43;101975.25;4976829;28;97340;-29
2023/03/05 09:07:48;;;;;;;0.10;0.10;;;;;;;5.32;80.17;101971.41;4976473;28;97775;-33
2023/03/05 09:10:13;;;;;;;0.00;0.00;;;;;;;5.46;80.02;101974.69;4975507;28;96598;-30
2023/03/05 09:12:42;;;;;;;0.00;0.00;;;;;;;5.57;79.62;101962.81;4976767;28;96745;-31
2023/03/05 09:15:10;;;;;;;0.00;0.00;;;;;;;5.71;79.19;101976.81;4976384;28;98025;-31
2023/03/05 09:17:37;;;;;;;0.00;0.00;;;;;;;5.75;78.47;101974.03;4976136;28;97925;-30
2023/03/05 09:20:04;;;;;;;0.00;0.00;;;;;;;5.79;78.71;101977.50;4976811;28;96410;-30
2023/03/05 09:22:30;;;;;;;0.22;0.13;;;;;;;5.76;78.66;101966.81;4976752;28;96812;-31
2023/03/05 09:24:56;;;;;;;0.52;0.10;;;;;;;5.77;78.67;101975.78;4975736;28;97938;-30
2023/03/05 09:27:21;;;;;;;2.55;0.17;;;;;;;5.73;79.06;101969.59;4976144;28;99573;-30
2023/03/05 09:29:47;;;;;;;0.10;0.03;;;;;;;5.73;78.99;101969.59;4974905;28;96621;-30
2023/03/05 09:32:12;;;;;;;0.00;0.00;;;;;;;5.70;78.42;101969.69;4976603;28;96723;-30
2023/03/05 09:34:38;;;;;;;0.00;0.00;;;;;;;5.65;78.50;101974.25;4976195;28;97352;-30
2023/03/05 09:37:03;;;;;;;4.00;0.20;;;;;;;5.52;79.70;101965.59;4976258;28;97805;-30
2023/03/05 09:39:29;;;;;;;1.00;0.03;;;;;;;5.39;79.54;101972.19;4976563;28;96610;-29
2023/03/05 09:42:17;;;;;;;0.00;0.00;;;;;;;5.31;80.27;101970.53;4975356;28;96851;-29
2023/03/05 09:44:50;;;;;;;0.08;0.08;;;;;;;5.19;81.20;101981.53;4983293;28;99350;-30
2023/03/05 09:47:37;;;;;;;0.88;0.20;;;;;;;5.05;81.33;101976.47;4974679;28;100888;-30
2023/03/05 09:50:06;;;;;;;1.35;0.20;;;;;;;4.97;81.06;101981.09;4974370;28;96692;-30
2023/03/05 09:52:44;;;;;;;0.00;0.00;;;;;;;4.97;80.85;101973.03;4976151;28;96763;-30
2023/03/05 09:55:17;;;;;;;0.10;0.00;;;;;;;4.98;80.98;101969.44;4974413;28;101238;-29
2023/03/05 09:57:47;;;;;;;0.13;0.00;;;;;;;5.03;80.82;101972.00;4974443;28;100802;-30
2023/03/05 10:00:32;;;;;;;0.00;0.00;;;;;;;5.03;80.96;101963.94;4976305;28;96585;-30
2023/03/05 10:03:02;;;;;;;0.28;0.10;;;;;;;5.02;81.31;101955.00;4976247;28;96728;-29
2023/03/05 10:05:50;;;;;;;0.00;0.00;;;;;;;5.10;80.85;101957.53;4974448;28;100975;-30
2023/03/05 10:08:21;;;;;;;0.17;0.10;;;;;;;5.14;80.99;101959.25;4975555;28;98478;-30
2023/03/05 10:10:51;;;;;;;0.90;0.40;;;;;;;5.22;80.62;101951.03;4974681;28;96692;-31
2023/03/05 10:13:28;;;;;;;0.20;0.08;;;;;;;5.28;80.28;101953.59;4974320;28;96852;-30
2023/03/05 10:16:19;;;;;;;0.00;0.00;;;;;;;5.35;80.25;101943.59;4973716;28;100473;-29
2023/03/05 10:19:06;;;;;;;0.20;0.20;;;;;;;5.41;80.19;101949.72;4975408;28;97934;-32
2023/03/05 10:21:41;;;;;;;0.03;0.03;;;;;;;5.45;80.05;101937.09;4975941;28;96536;-31
2023/03/05 10:24:13;;;;;;;0.10;0.10;;;;;;;5.51;79.86;101932.47;4974218;28;96788;-31
2023/03/05 10:26:51;;;;;;;0.00;0.00;;;;;;;5.62;79.69;101934.00;4974160;28;100997;-29
2023/03/05 10:29:59;;;;;;;0.10;0.10;;;;;;;5.72;79.45;101924.81;4974868;28;97944;-30
2023/03/05 10:32:33;;;;;;;0.05;0.05;;;;;;;5.83;79.79;101917.38;4983348;28;96859;-30
2023/03/05 10:35:39;;;;;;;0.00;0.00;;;;;;;5.87;79.55;101907.44;4974729;28;96807;-32
2023/03/05 10:38:42;;;;;;;0.00;0.00;;;;;;;6.00;79.09;101913.41;4973962;28;99364;-30
2023/03/05 10:41:15;;;;;;;0.00;0.00;;;;;;;6.11;78.98;101906.84;4975289;28;97806;-32
2023/03/05 10:44:03;;;;;;;0.13;0.00;;;;;;;6.31;78.32;101911.69;4974934;28;96577;-30
2023/03/05 10:46:36;;;;;;;0.85;0.20;;;;;;;6.46;78.27;101890.66;4975254;28;96767;-30
2023/03/05 10:49:11;;;;;;;0.25;0.08;;;;;;;6.70;77.45;101897.19;4974610;28;97404;-30
2023/03/05 10:51:47;;;;;;;1.25;0.17;;;;;;;6.94;76.72;101890.22;4974873;28;99212;-30
2023/03/05 10:54:12;;;;;;;0.20;0.13;;;;;;;7.17;76.21;101889.50;4973984;28;96492;-30
2023/03/05 10:56:38;;;;;;;0.00;0.00;;;;;;;7.25;74.98;101876.69;4975154;28;96981;-29
2023/03/05 10:59:03;;;;;;;0.00;0.00;;;;;;;7.29;74.43;101863.97;4974964;28;97929;-32
2023/03/05 11:01:30;;;;;;;0.00;0.00;;;;;;;7.53;74.21;101859.63;4975408;28;97289;-30
2023/03/05 11:04:07;;;;;;;1.10;0.28;;;;;;;7.64;73.47;101852.94;4973745;28;96583;-30
2023/03/05 11:06:40;;;;;;;0.20;0.20;;;;;;;7.73;73.47;101859.84;4973884;28;96777;-29
2023/03/05 11:09:28;;;;;;;0.10;0.10;;;;;;;7.92;72.94;101859.25;4972486;28;101611;-30
2023/03/05 11:12:14;;;;;;;0.13;0.10;;;;;;;7.93;72.25;101858.28;4973280;28;100964;-31
2023/03/05 11:15:01;;;;;;;0.08;0.08;;;;;;;7.87;72.49;101852.19;4973735;28;96554;-30
2023/03/05 11:17:30;;;;;;;0.00;0.00;;;;;;;7.87;72.56;101854.00;4975317;28;96530;-30
2023/03/05 11:19:57;;;;;;;0.00;0.00;;;;;;;7.82;72.49;101850.56;4974449;28;98077;-30
2023/03/05 11:22:24;;;;;;;0.45;0.08;;;;;;;7.79;72.51;101847.97;4973157;28;98875;-30
2023/03/05 11:25:15;;;;;;;0.75;0.13;;;;;;;7.78;72.71;101838.13;4973289;28;96857;-30
2023/03/05 11:27:47;;;;;;;0.43;0.30;;;;;;;7.74;72.95;101842.72;4974005;28;96729;-30
2023/03/05 11:30:25;;;;;;;0.05;0.05;;;;;;;7.65;72.97;101833.16;4974824;28;97982;-30
2023/03/05 11:33:13;;;;;;;0.20;0.20;;;;;;;7.56;73.26;101825.34;4974493;28;97885;-30
2023/03/05 11:35:40;;;;;;;1.08;0.15;;;;;;;7.52;73.41;101834.47;4974198;28;96698;-30